Friday, January 19, 2018, 10:32 PM EST
Back to Local

KASH, Nashua, Boire Field Airport

Location: Nashua, NH, United States Lat: 42.782
Local Time: 10:32 PM EST ( 3:32 GMT) Lon: -71.515
Time Zone: US/Eastern Elev: 200 ft

Show me the last for .
Show Decoded

2018-01-19 21:56 METAR KASH 200256Z AUTO 00000KT 10SM CLR M04/M07 A2990 RMK AO2 SLP138 T10441067
                 58007 =
2018-01-19 20:56 METAR KASH 200156Z VRB03KT 10SM BKN037 M02/M06 A2992 RMK AO2 SLP144 T10171056 =
2018-01-19 19:56 METAR KASH 200056Z 00000KT 10SM OVC039 M01/M06 A2993 RMK AO2 SLP147 T10111056 =
2018-01-19 18:56 METAR KASH 192356Z 00000KT 10SM OVC039 M01/M06 A2992 RMK AO2 SLP144 T10111056
                 10011 21017 55002 =
2018-01-19 17:56 METAR KASH 192256Z 00000KT 10SM OVC039 M02/M06 A2992 RMK AO2 SLP142 T10171056 =
2018-01-19 16:56 METAR KASH 192156Z 00000KT 10SM OVC039 M01/M06 A2993 =
2018-01-19 15:56 METAR KASH 192056Z 29004KT 10SM OVC037 00/M06 A2993 RMK AO2 SLP147 T00001056
                 53006 =
2018-01-19 14:56 METAR KASH 191956Z 32006KT 10SM OVC035 00/M07 A2993 RMK AO2 SLP145 T00001067 =
2018-01-19 13:56 METAR KASH 191856Z 31010KT 10SM OVC031 01/M06 A2991 RMK AO2 SLP139 T00061061 =
2018-01-19 12:56 METAR KASH 191756Z 32007KT 10SM OVC037 01/M06 A2991 RMK AO2 SLP141 T00111061
                 10011 21078 58021 =
2018-01-19 11:56 METAR KASH 191656Z 30007KT 10SM OVC037 00/M07 A2994 RMK AO2 SLP149 T00001067 =
2018-01-19 10:56 METAR KASH 191556Z 31004KT 10SM OVC039 M01/M06 A2996 RMK AO2 SLP158 T10061061 =
2018-01-19 09:56 METAR KASH 191456Z 00000KT 10SM OVC041 M01/M04 A2998 RMK AO2 SLP162 T10061044
                 50006 =
2018-01-19 08:56 METAR KASH 191356Z 00000KT 10SM OVC043 M03/M04 A2998 RMK AO2 SLP163 T10331039 =
2018-01-19 07:56 METAR KASH 191256Z 00000KT 10SM OVC060 M06/M07 A2996 RMK AO2 SLP156 T10611067 =
2018-01-19 06:56 METAR KASH 191156Z 00000KT 10SM BKN048 M08/M08 A2996 RMK AO2 SLP156 6//// 7////
                 T10781083 11072 21139 53010 =
2018-01-19 05:56 METAR KASH 191056Z AUTO 13003KT 10SM FEW050 BKN095 BKN120 M08/M08 A2993 RMK AO2
                 SLP146 T10781083 =
2018-01-19 04:56 METAR KASH 190956Z AUTO 00000KT 10SM CLR M09/M11 A2994 RMK AO2 SLP150 T10941106
                 =
2018-01-19 03:56 METAR KASH 190856Z AUTO 00000KT 10SM CLR M10/M11 A2993 RMK AO2 SLP145 T11001111
                 58000 =
2018-01-19 02:56 METAR KASH 190756Z AUTO 00000KT 10SM CLR M12/M13 A2992 RMK AO2 SLP144 T11221128
                 =
2018-01-19 01:56 METAR KASH 190656Z AUTO 00000KT 10SM CLR M13/M15 A2994 RMK AO2 SLP151 T11331150
                 =
2018-01-19 00:56 METAR KASH 190556Z AUTO 00000KT 10SM CLR M13/M14 A2993 RMK AO2 SLP146 T11281139
                 11078 21128 55009 =
2018-01-18 23:56 METAR KASH 190456Z AUTO 00000KT 10SM CLR M10/M11 A2993 RMK AO2 SLP145 T11001111
                 =
2018-01-18 22:56 METAR KASH 190356Z AUTO 32003KT 10SM CLR M10/M11 A2995 RMK AO2 SLP153 T11001111
                 410111133 =

Support USWX by starting your Amazon purchase here.